Météo Nord-Pas-de-Calais   La météo au plus près de chez vous

Station météorologique

Observations météo à Valence-Chabeui (26064)

26064001 163 m Dernier relevé à 14:00
31.7°C
Humidité 44 % Vent 22 km/h 1020.8 hPa

Journée consultée

Dimanche 6 Septembre 2026

Synthèse de la journée

Périodes de référence en UTC

Température maximale

31.7°C

à 14:00

06h 06h

Température minimale

19.3°C

à 05:00

18h 18h

Rafale maximale

35 km/h

à 12:54

00h 00h

Précipitations

0 mm

Cumul quotidien

06h 06h

Graphiques de la journée

Heure locale Réduire

Données détaillées

Relevés météo

Pas de 6 minutes Afficher les relevés infra-horaires
Relevés météo détaillés à Valence-Chabeui pour le Dimanche 6 Septembre 2026
Heure Température °C Point de rosée °C Humidité % Vent moyen (raf.), km/h Précipitations mm Visibilité m Pression hPa
14:00 31.7 °C 16 °C 39 % 17 km/h (29 km/h) 0 mm0 mm 20000 m 1020 hPa
13:54 31.3 °C 16.1 °C 40 % 15 km/h (24 km/h) 0 mm0 mm 20000 m 1020.1 hPa
13:48 31.1 °C 15.9 °C 40 % 17 km/h (28 km/h) 0 mm0 mm 20000 m 1020.2 hPa
13:42 31 °C 16.2 °C 41 % 18 km/h (30 km/h) 0 mm0 mm 20000 m 1020.2 hPa
13:36 31 °C 16.2 °C 41 % 19 km/h (30 km/h) 0 mm0 mm 20000 m 1020.4 hPa
13:30 30.8 °C 16 °C 41 % 18 km/h (25 km/h) 0 mm0 mm 20000 m 1020.4 hPa
13:24 30.5 °C 16.5 °C 43 % 18 km/h (26 km/h) 0 mm0 mm 20000 m 1020.5 hPa
13:18 30.2 °C 16.2 °C 43 % 19 km/h (29 km/h) 0 mm0 mm 20000 m 1020.6 hPa
13:12 30.7 °C 16.3 °C 42 % 19 km/h (27 km/h) 0 mm0 mm 20000 m 1020.6 hPa
13:06 30.3 °C 16.3 °C 43 % 18 km/h (28 km/h) 0 mm0 mm 20000 m 1020.7 hPa
13:00 29.8 °C 16.2 °C 44 % 22 km/h (35 km/h) 0 mm0 mm 20000 m 1020.8 hPa
12:54 29.7 °C 16.5 °C 45 % 20 km/h (35 km/h) 0 mm0 mm 20000 m 1020.7 hPa
12:48 29.7 °C 16.5 °C 45 % 19 km/h (27 km/h) 0 mm0 mm 20000 m 1020.9 hPa
12:42 29.4 °C 16.2 °C 45 % 19 km/h (29 km/h) 0 mm0 mm 20000 m 1021.1 hPa
12:36 29.2 °C 16.7 °C 47 % 18 km/h (29 km/h) 0 mm0 mm 20000 m 1021.2 hPa
12:30 29 °C 16.9 °C 48 % 18 km/h (27 km/h) 0 mm0 mm 20000 m 1021.3 hPa
12:24 28.6 °C 16.5 °C 48 % 19 km/h (27 km/h) 0 mm0 mm 20000 m 1021.4 hPa
12:18 28.8 °C 16.7 °C 48 % 19 km/h (29 km/h) 0 mm0 mm 20000 m 1021.5 hPa
12:12 28.4 °C 16.7 °C 49 % 19 km/h (29 km/h) 0 mm0 mm 20000 m 1021.6 hPa
12:06 28.5 °C 16.7 °C 49 % 19 km/h (27 km/h) 0 mm0 mm 20000 m 1021.8 hPa
12:00 28.2 °C 16.8 °C 50 % 21 km/h (27 km/h) 0 mm0 mm 20000 m 1021.9 hPa
11:54 27.8 °C 16.4 °C 50 % 21 km/h (29 km/h) 0 mm0 mm 20000 m 1022 hPa
11:48 27.9 °C 16.8 °C 51 % 21 km/h (30 km/h) 0 mm0 mm 20000 m 1022 hPa
11:42 27.4 °C 16.4 °C 51 % 22 km/h (30 km/h) 0 mm0 mm 20000 m 1022 hPa
11:36 27.3 °C 16.6 °C 52 % 21 km/h (30 km/h) 0 mm0 mm 20000 m 1022.1 hPa
11:30 26.8 °C 16.7 °C 54 % 21 km/h (30 km/h) 0 mm0 mm 20000 m 1022.2 hPa
11:24 26.7 °C 16.6 °C 54 % 22 km/h (30 km/h) 0 mm0 mm 20000 m 1022.2 hPa
11:18 26.6 °C 16.8 °C 55 % 22 km/h (30 km/h) 0 mm0 mm 20000 m 1022.4 hPa
11:12 26.2 °C 16.7 °C 56 % 21 km/h (30 km/h) 0 mm0 mm 20000 m 1022.4 hPa
11:06 26.2 °C 16.7 °C 56 % 21 km/h (30 km/h) 0 mm0 mm 20000 m 1022.4 hPa
11:00 25.8 °C 16.6 °C 57 % 21 km/h (28 km/h) 0 mm0 mm 20000 m 1022.4 hPa
10:54 25.5 °C 16.4 °C 57 % 22 km/h (29 km/h) 0 mm0 mm 20000 m 1022.3 hPa
10:48 25.3 °C 16.2 °C 57 % 21 km/h (28 km/h) 0 mm0 mm 20000 m 1022.4 hPa
10:42 25.4 °C 16.3 °C 57 % 21 km/h (26 km/h) 0 mm0 mm 20000 m 1022.4 hPa
10:36 25.3 °C 16.4 °C 58 % 21 km/h (27 km/h) 0 mm0 mm 20000 m 1022.4 hPa
10:30 25 °C 16.2 °C 58 % 23 km/h (29 km/h) 0 mm0 mm 20000 m 1022.5 hPa
10:24 24.9 °C 16.3 °C 59 % 24 km/h (30 km/h) 0 mm0 mm 20000 m 1022.5 hPa
10:18 24.7 °C 16.1 °C 59 % 23 km/h (30 km/h) 0 mm0 mm 20000 m 1022.6 hPa
10:12 24.7 °C 16.4 °C 60 % 23 km/h (31 km/h) 0 mm0 mm 20000 m 1022.6 hPa
10:06 24.3 °C 16 °C 60 % 25 km/h (33 km/h) 0 mm0 mm 20000 m 1022.6 hPa
10:00 24.3 °C 16 °C 60 % 24 km/h (33 km/h) 0 mm0 mm 20000 m 1022.6 hPa
09:54 23.9 °C 15.9 °C 61 % 26 km/h (34 km/h) 0 mm0 mm 20000 m 1022.6 hPa
09:48 24 °C 16.3 °C 62 % 27 km/h (33 km/h) 0 mm0 mm 20000 m 1022.6 hPa
09:42 23.6 °C 16.1 °C 63 % 27 km/h (33 km/h) 0 mm0 mm 20000 m 1022.7 hPa
09:36 23.4 °C 16 °C 63 % 26 km/h (32 km/h) 0 mm0 mm 20000 m 1022.6 hPa
09:30 23.1 °C 15.7 °C 63 % 26 km/h (34 km/h) 0 mm0 mm 20000 m 1022.7 hPa
09:24 23 °C 15.8 °C 64 % 27 km/h (32 km/h) 0 mm0 mm 20000 m 1022.7 hPa
09:18 22.8 °C 15.9 °C 65 % 28 km/h (34 km/h) 0 mm0 mm 20000 m 1022.7 hPa
09:12 22.5 °C 15.8 °C 66 % 28 km/h (33 km/h) 0 mm0 mm 20000 m 1022.6 hPa
09:06 22.4 °C 16 °C 67 % 28 km/h (34 km/h) 0 mm0 mm 20000 m 1022.6 hPa
09:00 22.2 °C 15.8 °C 67 % 26 km/h (33 km/h) 0 mm0 mm 20000 m 1022.7 hPa
08:54 22.2 °C 16 °C 68 % 23 km/h (30 km/h) 0 mm0 mm 20000 m 1022.7 hPa
08:48 22 °C 16.3 °C 70 % 22 km/h (29 km/h) 0 mm0 mm 20000 m 1022.8 hPa
08:42 21.7 °C 16.2 °C 71 % 23 km/h (29 km/h) 0 mm0 mm 20000 m 1022.8 hPa
08:36 21.5 °C 16.2 °C 72 % 22 km/h (29 km/h) 0 mm0 mm 20000 m 1022.7 hPa
08:30 21.4 °C 16.1 °C 72 % 22 km/h (29 km/h) 0 mm0 mm 20000 m 1022.7 hPa
08:24 21.3 °C 16.3 °C 73 % 20 km/h (25 km/h) 0 mm0 mm 20000 m 1022.7 hPa
08:18 21.2 °C 16.4 °C 74 % 19 km/h (26 km/h) 0 mm0 mm 20000 m 1022.8 hPa
08:12 21 °C 16.4 °C 75 % 21 km/h (26 km/h) 0 mm0 mm 20000 m 1022.8 hPa
08:06 20.8 °C 16.4 °C 76 % 18 km/h (26 km/h) 0 mm0 mm 20000 m 1022.8 hPa
08:00 20.6 °C 16.4 °C 77 % 13 km/h (24 km/h) 0 mm0 mm 20000 m 1022.8 hPa
07:54 19.9 °C 16.1 °C 79 % 7 km/h (13 km/h) 0 mm0 mm 20000 m 1023 hPa
07:48 20 °C 15.8 °C 77 % 8 km/h (15 km/h) 0 mm0 mm 20000 m 1022.9 hPa
07:42 20.3 °C 16.1 °C 77 % 14 km/h (21 km/h) 0 mm0 mm 20000 m 1022.8 hPa
07:36 20.3 °C 16.1 °C 77 % 18 km/h (23 km/h) 0 mm0 mm 20000 m 1022.6 hPa
07:30 20.2 °C 16 °C 77 % 19 km/h (24 km/h) 0 mm0 mm 20000 m 1022.5 hPa
07:24 20.2 °C 16 °C 77 % 20 km/h (25 km/h) 0 mm0 mm 20000 m 1022.4 hPa
07:18 20.4 °C 16 °C 76 % 20 km/h (29 km/h) 0 mm0 mm 20000 m 1022.2 hPa
07:12 20.3 °C 16.1 °C 77 % 19 km/h (25 km/h) 0 mm0 mm 20000 m 1022.4 hPa
07:06 20.3 °C 16.1 °C 77 % 20 km/h (27 km/h) 0 mm0 mm 20000 m 1022.3 hPa
07:00 20.4 °C 16.2 °C 77 % 21 km/h (27 km/h) 0 mm0 mm 20000 m 1022 hPa
06:54 20.4 °C 16.2 °C 77 % 21 km/h (26 km/h) 0 mm0 mm 20000 m 1022 hPa
06:48 20.4 °C 16.2 °C 77 % 20 km/h (25 km/h) 0 mm0 mm 20000 m 1022 hPa
06:42 20.2 °C 16.2 °C 78 % 17 km/h (24 km/h) 0 mm0 mm 20000 m 1022.1 hPa
06:36 20.1 °C 16.1 °C 78 % 16 km/h (21 km/h) 0 mm0 mm 20000 m 1022.1 hPa
06:30 20.2 °C 16.2 °C 78 % 16 km/h (20 km/h) 0 mm0 mm 20000 m 1022.1 hPa
06:24 20.2 °C 16.2 °C 78 % 15 km/h (19 km/h) 0 mm0 mm 20000 m 1022.1 hPa
06:18 20.2 °C 16.2 °C 78 % 15 km/h (22 km/h) 0 mm0 mm 20000 m 1022.1 hPa
06:12 20.1 °C 16.3 °C 79 % 13 km/h (22 km/h) 0 mm0 mm 20000 m 1022.1 hPa
06:06 20 °C 16 °C 78 % 13 km/h (17 km/h) 0 mm0 mm 20000 m 1022.1 hPa
06:00 20.1 °C 16.1 °C 78 % 14 km/h (16 km/h) 0 mm0 mm 20000 m 1022.1 hPa
05:54 20.1 °C 16.3 °C 79 % 13 km/h (17 km/h) 0 mm0 mm 20000 m 1022.1 hPa
05:48 20.1 °C 16.1 °C 78 % 12 km/h (15 km/h) 0 mm0 mm 20000 m 1022 hPa
05:42 20 °C 16 °C 78 % 10 km/h (14 km/h) 0 mm0 mm 20000 m 1022.1 hPa
05:36 20 °C 16 °C 78 % 10 km/h (15 km/h) 0 mm0 mm 20000 m 1022.1 hPa
05:30 20.2 °C 16.2 °C 78 % 13 km/h (21 km/h) 0 mm0 mm 20000 m 1022.1 hPa
05:24 20.4 °C 16.2 °C 77 % 17 km/h (22 km/h) 0 mm0 mm 20000 m 1021.9 hPa
05:18 20.3 °C 16.3 °C 78 % 17 km/h (22 km/h) 0 mm0 mm 20000 m 1021.9 hPa
05:12 19.9 °C 16.1 °C 79 % 15 km/h (19 km/h) 0 mm0 mm 20000 m 1022 hPa
05:06 19.7 °C 16.2 °C 80 % 15 km/h (19 km/h) 0 mm0 mm 20000 m 1022 hPa
05:00 19.5 °C 16 °C 80 % 13 km/h (19 km/h) 0 mm0 mm 20000 m 1022.1 hPa
04:54 19.4 °C 15.9 °C 80 % 11 km/h (13 km/h) 0 mm0 mm 20000 m 1022.2 hPa
04:48 19.6 °C 15.9 °C 79 % 11 km/h (12 km/h) 0 mm0 mm 20000 m 1022.3 hPa
04:42 19.7 °C 16 °C 79 % 11 km/h (13 km/h) 0 mm0 mm 20000 m 1022.3 hPa
04:36 19.7 °C 15.6 °C 77 % 9 km/h (13 km/h) 0 mm0 mm 20000 m 1022.4 hPa
04:30 19.9 °C 15.5 °C 76 % 9 km/h (11 km/h) 0 mm0 mm 20000 m 1022.4 hPa
04:24 20 °C 15.4 °C 75 % 10 km/h (13 km/h) 0 mm0 mm 20000 m 1022.4 hPa
04:18 20.6 °C 15.2 °C 71 % 14 km/h (22 km/h) 0 mm0 mm 20000 m 1022.3 hPa
04:12 21.6 °C 16.1 °C 71 % 19 km/h (24 km/h) 0 mm0 mm 20000 m 1022.3 hPa
04:06 21.7 °C 16 °C 70 % 19 km/h (24 km/h) 0 mm0 mm 20000 m 1022.2 hPa
04:00 21.8 °C 16.1 °C 70 % 19 km/h (24 km/h) 0 mm0 mm 20000 m 1022.3 hPa
03:54 21.9 °C 16 °C 69 % 21 km/h (28 km/h) 0 mm0 mm 20000 m 1022.3 hPa
03:48 22.1 °C 16.1 °C 69 % 22 km/h (30 km/h) 0 mm0 mm 20000 m 1022 hPa
03:42 22.2 °C 16 °C 68 % 24 km/h (31 km/h) 0 mm0 mm 20000 m 1022 hPa
03:36 22.2 °C 16 °C 68 % 24 km/h (32 km/h) 0 mm0 mm 20000 m 1022 hPa
03:30 22.3 °C 16.1 °C 68 % 22 km/h (32 km/h) 0 mm0 mm 20000 m 1022.1 hPa
03:24 22.1 °C 16.1 °C 69 % 19 km/h (26 km/h) 0 mm0 mm 20000 m 1022.1 hPa
03:18 22.1 °C 16.1 °C 69 % 15 km/h (22 km/h) 0 mm0 mm 20000 m 1022 hPa
03:12 22 °C 16 °C 69 % 14 km/h (19 km/h) 0 mm0 mm 20000 m 1021.9 hPa
03:06 22.1 °C 15.9 °C 68 % 16 km/h (22 km/h) 0 mm0 mm 20000 m 1021.9 hPa
03:00 22.2 °C 16 °C 68 % 18 km/h (25 km/h) 0 mm0 mm 20000 m 1022 hPa
02:54 22.3 °C 15.9 °C 67 % 21 km/h (27 km/h) 0 mm0 mm 20000 m 1021.9 hPa
02:48 22.3 °C 15.9 °C 67 % 19 km/h (26 km/h) 0 mm0 mm 20000 m 1021.9 hPa
02:42 22.3 °C 15.9 °C 67 % 19 km/h (26 km/h) 0 mm0 mm 20000 m 1021.9 hPa
02:36 22.4 °C 16 °C 67 % 21 km/h (27 km/h) 0 mm0 mm 20000 m 1022 hPa
02:30 22.2 °C 15.8 °C 67 % 19 km/h (28 km/h) 0 mm0 mm 20000 m 1021.9 hPa
02:24 22.2 °C 15.8 °C 67 % 20 km/h (30 km/h) 0 mm0 mm 20000 m 1022 hPa
02:18 22.3 °C 15.9 °C 67 % 21 km/h (30 km/h) 0 mm0 mm 20000 m 1021.9 hPa
02:12 22.4 °C 15.7 °C 66 % 22 km/h (27 km/h) 0 mm0 mm 20000 m 1021.8 hPa
02:06 22.3 °C 15.6 °C 66 % 21 km/h (28 km/h) 0 mm0 mm 20000 m 1021.8 hPa
02:00 22.2 °C 15.5 °C 66 % 19 km/h (25 km/h) 0 mm0 mm 20000 m 1021.9 hPa
01:54 22.3 °C 15.4 °C 65 % 18 km/h (23 km/h) 0 mm0 mm 20000 m 1021.9 hPa
01:48 22.2 °C 15.3 °C 65 % 19 km/h (24 km/h) 0 mm0 mm 20000 m 1021.9 hPa
01:42 22.5 °C 15.6 °C 65 % 21 km/h (24 km/h) 0 mm0 mm 20000 m 1021.7 hPa
01:36 22.4 °C 15.5 °C 65 % 20 km/h (24 km/h) 0 mm0 mm 20000 m 1021.7 hPa
01:30 22.3 °C 15.4 °C 65 % 20 km/h (24 km/h) 0 mm0 mm 20000 m 1021.9 hPa
01:24 22.3 °C 15.4 °C 65 % 18 km/h (23 km/h) 0 mm0 mm 20000 m 1021.9 hPa
01:18 22 °C 15.1 °C 65 % 17 km/h (21 km/h) 0 mm0 mm 20000 m 1022 hPa
01:12 21.9 °C 15 °C 65 % 17 km/h (20 km/h) 0 mm0 mm 20000 m 1022 hPa
01:06 22.1 °C 15 °C 64 % 17 km/h (20 km/h) 0 mm0 mm 20000 m 1021.8 hPa
01:00 22.2 °C 15.1 °C 64 % 17 km/h (21 km/h) 0 mm0 mm 20000 m 1021.9 hPa
00:54 22.3 °C 14.9 °C 63 % 17 km/h (21 km/h) 0 mm0 mm 20000 m 1021.9 hPa
00:48 22.3 °C 14.9 °C 63 % 16 km/h (19 km/h) 0 mm0 mm 20000 m 1022 hPa
00:42 22.3 °C 14.9 °C 63 % 15 km/h (19 km/h) 0 mm0 mm 20000 m 1022 hPa
00:36 22.4 °C 14.8 °C 62 % 15 km/h (18 km/h) 0 mm0 mm 20000 m 1022 hPa
00:30 22.6 °C 14.7 °C 61 % 15 km/h (18 km/h) 0 mm0 mm 20000 m 1022 hPa
00:24 22.7 °C 14.8 °C 61 % 15 km/h (18 km/h) 0 mm0 mm 20000 m 1022.1 hPa
00:18 22.8 °C 14.6 °C 60 % 14 km/h (18 km/h) 0 mm0 mm 20000 m 1022.1 hPa
00:12 22.7 °C 14.5 °C 60 % 13 km/h (17 km/h) 0 mm0 mm 20000 m 1022 hPa
00:06 22.8 °C 14.6 °C 60 % 13 km/h (17 km/h) 0 mm0 mm 20000 m 1022 hPa
00:00 22.9 °C 14.7 °C 60 % 13 km/h (18 km/h) 0 mm0 mm 20000 m 1021.9 hPa

Données via Météo-France

Relevés météo à Valence-Chabeui

Cette page rassemble les observations de la station de Valence-Chabeui : température, humidité, vent, précipitations et pression atmosphérique. Les graphiques facilitent le suivi de la journée, tandis que le tableau donne accès aux mesures horaires et infra-horaires disponibles.

Pour replacer ces mesures dans leur contexte, consultez la climatologie de Valence-Chabeui ainsi que ses normales et records. Retrouvez aussi la carte des observations météo en temps réel.